createdAt,value
2023-04-22T00:02:24.677Z,5.70
2023-04-22T00:04:51.769Z,5.75
2023-04-22T00:07:18.884Z,6.35
2023-04-22T00:09:46.069Z,6.07
2023-04-22T00:12:12.992Z,6.72
2023-04-22T00:14:40.047Z,6.03
2023-04-22T00:17:09.858Z,5.82
2023-04-22T00:19:37.585Z,7.10
2023-04-22T00:22:04.645Z,6.30
2023-04-22T00:24:31.549Z,5.80
2023-04-22T00:26:58.818Z,5.80
2023-04-22T00:29:26.094Z,5.90
2023-04-22T00:31:53.033Z,5.75
2023-04-22T00:34:19.898Z,5.55
2023-04-22T00:36:46.899Z,6.15
2023-04-22T00:39:14.193Z,6.40
2023-04-22T00:41:41.127Z,5.97
2023-04-22T00:44:12.007Z,6.47
2023-04-22T00:46:39.908Z,6.60
2023-04-22T00:49:07.835Z,6.47
2023-04-22T00:51:35.495Z,6.32
2023-04-22T00:54:03.548Z,6.95
2023-04-22T00:56:30.723Z,6.82
2023-04-22T00:58:58.011Z,6.47
2023-04-22T01:01:25.228Z,6.32
2023-04-22T01:03:53.356Z,5.60
2023-04-22T01:06:23.294Z,6.50
2023-04-22T01:08:50.196Z,6.32
2023-04-22T01:11:17.075Z,6.68
2023-04-22T01:13:43.948Z,6.80
2023-04-22T01:16:11.151Z,6.72
2023-04-22T01:18:38.082Z,6.90
2023-04-22T01:21:05.823Z,6.97
2023-04-22T01:23:33.217Z,6.28
2023-04-22T01:26:00.343Z,6.53
2023-04-22T01:28:27.461Z,6.80
2023-04-22T01:30:54.495Z,5.62
2023-04-22T01:33:21.411Z,6.35
2023-04-22T01:35:48.342Z,5.87
2023-04-22T01:38:15.220Z,6.70
2023-04-22T01:40:42.144Z,6.45
2023-04-22T01:43:09.052Z,5.87
2023-04-22T01:45:36.080Z,6.10
2023-04-22T01:48:03.026Z,8.15
2023-04-22T01:50:29.874Z,7.90
2023-04-22T01:52:57.266Z,6.53
2023-04-22T01:55:24.171Z,8.50
2023-04-22T01:57:51.165Z,8.40
2023-04-22T02:00:18.309Z,7.32
2023-04-22T02:02:45.292Z,7.03
2023-04-22T02:05:12.275Z,5.80
2023-04-22T02:07:39.197Z,6.18
2023-04-22T02:10:06.742Z,6.05
2023-04-22T02:12:33.659Z,6.75
2023-04-22T02:15:00.570Z,6.87
2023-04-22T02:17:27.766Z,6.62
2023-04-22T02:19:54.883Z,6.68
2023-04-22T02:22:23.148Z,6.72
2023-04-22T02:24:50.091Z,6.70
2023-04-22T02:27:16.950Z,6.28
2023-04-22T02:29:43.820Z,6.37
2023-04-22T02:32:10.836Z,7.10
2023-04-22T02:34:37.716Z,6.57
2023-04-22T02:37:04.617Z,6.45
2023-04-22T02:39:31.601Z,7.28
2023-04-22T02:41:58.522Z,6.50
2023-04-22T02:44:25.443Z,6.95
2023-04-22T02:46:52.431Z,6.95
2023-04-22T02:49:19.295Z,7.28
2023-04-22T02:51:46.171Z,7.35
2023-04-22T02:54:13.049Z,9.27
2023-04-22T02:56:39.915Z,7.20
2023-04-22T02:59:06.875Z,6.80
2023-04-22T03:01:33.849Z,7.00
2023-04-22T03:04:00.974Z,6.87
2023-04-22T03:06:27.977Z,7.00
2023-04-22T03:08:54.843Z,6.60
2023-04-22T03:11:21.752Z,6.53
2023-04-22T03:13:48.595Z,6.57
2023-04-22T03:16:17.527Z,6.80
2023-04-22T03:18:44.402Z,6.93
2023-04-22T03:21:11.266Z,6.65
2023-04-22T03:23:38.121Z,6.93
2023-04-22T03:26:05.074Z,6.57
2023-04-22T03:28:31.982Z,6.57
2023-04-22T03:30:58.837Z,6.12
2023-04-22T03:33:25.851Z,7.32
2023-04-22T03:35:52.701Z,7.03
2023-04-22T03:38:19.581Z,6.85
2023-04-22T03:40:46.495Z,7.12
2023-04-22T03:43:13.343Z,6.25
2023-04-22T03:45:40.262Z,6.95
2023-04-22T03:48:07.231Z,6.78
2023-04-22T03:50:34.186Z,7.35
2023-04-22T03:53:01.117Z,8.50
2023-04-22T03:55:28.037Z,9.18
2023-04-22T03:57:54.878Z,6.37
2023-04-22T04:00:21.726Z,6.87
2023-04-22T04:02:48.680Z,7.60
2023-04-22T04:05:15.998Z,9.15
2023-04-22T04:07:43.086Z,9.38
2023-04-22T04:10:11.054Z,8.98
2023-04-22T04:12:37.957Z,8.88
2023-04-22T04:15:05.320Z,9.65
2023-04-22T04:17:32.251Z,9.35
2023-04-22T04:19:59.197Z,10.70
2023-04-22T04:24:56.149Z,9.73
2023-04-22T04:27:24.204Z,8.57
2023-04-22T04:29:52.725Z,7.43
2023-04-22T04:32:19.832Z,7.45
2023-04-22T04:34:46.764Z,7.10
2023-04-22T04:37:13.802Z,7.60
2023-04-22T04:39:42.475Z,6.35
2023-04-22T04:42:10.041Z,6.80
2023-04-22T04:44:37.003Z,6.72
2023-04-22T04:47:04.409Z,6.65
2023-04-22T04:49:31.715Z,6.85
2023-04-22T04:51:58.697Z,7.00
2023-04-22T04:54:25.584Z,7.07
2023-04-22T04:56:52.426Z,6.82
2023-04-22T04:59:19.287Z,7.25
2023-04-22T05:01:46.227Z,6.95
2023-04-22T05:04:13.206Z,7.70
2023-04-22T05:06:40.276Z,6.95
2023-04-22T05:09:08.233Z,6.65
2023-04-22T05:11:35.388Z,7.30
2023-04-22T05:14:03.091Z,6.87
2023-04-22T05:16:30.215Z,7.07
2023-04-22T05:18:57.142Z,6.90
2023-04-22T05:21:24.048Z,6.28
2023-04-22T05:23:50.897Z,6.72
2023-04-22T05:26:17.732Z,5.87
2023-04-22T05:28:44.613Z,5.68
2023-04-22T05:31:11.462Z,6.10
2023-04-22T05:33:38.313Z,5.95
2023-04-22T05:36:05.404Z,5.47
2023-04-22T05:38:32.334Z,5.62
2023-04-22T05:40:59.221Z,6.32
2023-04-22T05:43:26.123Z,5.50
2023-04-22T05:45:53.003Z,6.68
2023-04-22T05:48:19.926Z,5.85
2023-04-22T05:50:46.778Z,5.85
2023-04-22T05:53:13.622Z,6.12
2023-04-22T05:55:40.513Z,6.32
2023-04-22T05:58:07.406Z,6.62
2023-04-22T06:00:34.355Z,7.20
2023-04-22T06:03:01.385Z,6.97
2023-04-22T06:05:28.621Z,7.03
2023-04-22T06:07:55.794Z,10.55
2023-04-22T06:10:22.910Z,8.05
2023-04-22T06:12:49.821Z,7.60
2023-04-22T06:15:16.714Z,7.40
2023-04-22T06:17:44.449Z,7.40
2023-04-22T06:20:12.044Z,7.20
2023-04-22T06:22:38.882Z,6.70
2023-04-22T06:25:06.447Z,6.95
2023-04-22T06:27:33.359Z,6.50
2023-04-22T06:30:00.260Z,5.22
2023-04-22T06:32:27.118Z,5.40
2023-04-22T06:34:53.972Z,5.18
2023-04-22T06:37:20.890Z,5.18
2023-04-22T06:39:47.795Z,5.37
2023-04-22T06:42:14.651Z,5.28
2023-04-22T06:44:41.625Z,5.10
2023-04-22T06:47:08.524Z,5.32
2023-04-22T06:49:38.638Z,5.18
2023-04-22T06:52:06.500Z,5.03
2023-04-22T06:54:33.545Z,4.80
2023-04-22T06:57:00.522Z,4.40
2023-04-22T06:59:27.436Z,5.10
2023-04-22T07:01:54.340Z,5.18
2023-04-22T07:04:21.313Z,5.60
2023-04-22T07:06:48.226Z,5.50
2023-04-22T07:09:15.111Z,5.72
2023-04-22T07:11:41.983Z,4.90
2023-04-22T07:14:08.882Z,5.80
2023-04-22T07:16:35.901Z,5.30
2023-04-22T07:19:03.073Z,5.22
2023-04-22T07:21:29.915Z,5.65
2023-04-22T07:23:56.744Z,6.10
2023-04-22T07:26:23.747Z,5.93
2023-04-22T07:28:50.619Z,5.47
2023-04-22T07:31:17.548Z,5.70
2023-04-22T07:33:44.436Z,5.80
2023-04-22T07:36:11.298Z,5.43
2023-04-22T07:38:38.155Z,5.68
2023-04-22T07:41:05.154Z,5.55
2023-04-22T07:43:32.040Z,5.12
2023-04-22T07:45:59.049Z,5.35
2023-04-22T07:48:25.998Z,5.37
2023-04-22T07:50:52.844Z,5.68
2023-04-22T07:53:20.790Z,5.40
2023-04-22T07:55:49.677Z,5.97
2023-04-22T07:58:17.308Z,5.65
2023-04-22T08:00:44.332Z,6.35
2023-04-22T08:03:11.506Z,5.15
2023-04-22T08:05:38.598Z,6.40
2023-04-22T08:08:06.092Z,5.75
2023-04-22T08:10:33.044Z,6.82
2023-04-22T08:13:00.087Z,6.30
2023-04-22T08:15:27.082Z,6.00
2023-04-22T08:17:53.984Z,5.97
2023-04-22T08:20:20.969Z,5.85
2023-04-22T08:22:48.849Z,6.05
2023-04-22T08:25:16.315Z,5.57
2023-04-22T08:27:43.234Z,5.40
2023-04-22T08:30:10.434Z,5.10
2023-04-22T08:32:37.699Z,5.50
2023-04-22T08:35:05.600Z,5.20
2023-04-22T08:37:32.849Z,4.65
2023-04-22T08:39:59.728Z,5.57
2023-04-22T08:42:27.804Z,5.18
2023-04-22T08:44:55.063Z,5.50
2023-04-22T08:47:22.041Z,5.40
2023-04-22T08:49:51.358Z,4.97
2023-04-22T08:52:18.666Z,5.40
2023-04-22T08:54:45.507Z,4.60
2023-04-22T08:57:13.303Z,5.47
2023-04-22T08:59:40.703Z,5.20
2023-04-22T09:02:13.706Z,5.20
2023-04-22T09:04:41.948Z,4.90
2023-04-22T09:07:09.070Z,4.90
2023-04-22T09:09:36.053Z,5.47
2023-04-22T09:12:03.575Z,5.05
2023-04-22T09:14:30.498Z,5.03
2023-04-22T09:16:58.492Z,5.25
2023-04-22T09:19:26.037Z,5.18
2023-04-22T09:21:54.288Z,4.93
2023-04-22T09:24:21.468Z,4.65
2023-04-22T09:26:49.021Z,4.70
2023-04-22T09:29:16.716Z,5.37
2023-04-22T09:31:50.160Z,4.95
2023-04-22T09:34:17.119Z,4.78
2023-04-22T09:36:46.837Z,4.55
2023-04-22T09:39:13.836Z,4.97
2023-04-22T09:41:41.176Z,4.50
2023-04-22T09:44:14.843Z,5.10
2023-04-22T09:46:45.223Z,4.97
2023-04-22T09:49:12.159Z,4.87
2023-04-22T09:51:44.864Z,5.22
2023-04-22T09:54:12.188Z,5.00
2023-04-22T09:56:49.702Z,4.90
2023-04-22T09:59:22.343Z,4.47
2023-04-22T10:01:50.755Z,5.00
2023-04-22T10:04:21.394Z,4.95
2023-04-22T10:06:48.967Z,4.90
2023-04-22T10:09:18.807Z,4.50
2023-04-22T10:11:45.910Z,4.35
2023-04-22T10:14:14.377Z,4.50
2023-04-22T10:16:45.586Z,4.60
2023-04-22T10:19:24.143Z,4.30
2023-04-22T10:21:56.749Z,4.60
2023-04-22T10:24:26.819Z,4.70
2023-04-22T10:27:02.994Z,4.43
2023-04-22T10:29:38.851Z,4.80
2023-04-22T10:32:25.114Z,4.63
2023-04-22T10:35:08.426Z,4.43
2023-04-22T10:37:35.962Z,4.57
2023-04-22T10:40:11.227Z,4.43
2023-04-22T10:42:41.959Z,4.00
2023-04-22T10:45:13.408Z,4.30
2023-04-22T10:47:42.108Z,4.45
2023-04-22T10:50:19.191Z,4.35
2023-04-22T10:55:14.172Z,4.15
2023-04-22T10:57:45.859Z,4.00
2023-04-22T11:00:27.984Z,4.00
2023-04-22T11:03:05.737Z,4.12
2023-04-22T11:05:33.323Z,4.00
2023-04-22T11:08:20.753Z,3.97
2023-04-22T11:10:51.711Z,4.00
2023-04-22T11:13:21.538Z,3.80
2023-04-22T11:15:50.553Z,3.92
2023-04-22T11:18:20.154Z,3.75
2023-04-22T11:20:49.314Z,3.75
2023-04-22T11:23:27.255Z,3.95
2023-04-22T11:26:09.935Z,3.72
2023-04-22T11:28:46.131Z,3.92
2023-04-22T11:31:15.214Z,4.10
2023-04-22T11:33:42.140Z,3.70
2023-04-22T11:36:12.819Z,4.05
2023-04-22T11:38:39.744Z,3.70
2023-04-22T11:41:06.655Z,4.20
2023-04-22T11:43:33.634Z,4.40
2023-04-22T11:46:00.721Z,4.28
2023-04-22T11:48:27.722Z,4.03
2023-04-22T11:51:09.970Z,4.25
2023-04-22T11:53:37.253Z,4.35
2023-04-22T11:56:04.266Z,4.12
2023-04-22T11:58:31.444Z,4.25
2023-04-22T12:00:59.150Z,4.18
2023-04-22T12:03:28.680Z,3.97
2023-04-22T12:06:04.313Z,3.90
2023-04-22T12:08:32.342Z,3.80
2023-04-22T12:11:01.681Z,4.32
2023-04-22T12:13:30.563Z,4.10
2023-04-22T12:16:05.418Z,4.55
2023-04-22T12:18:37.287Z,4.30
2023-04-22T12:21:06.887Z,3.83
2023-04-22T12:23:50.935Z,4.28
2023-04-22T12:26:19.139Z,3.92
2023-04-22T12:28:46.458Z,4.28
2023-04-22T12:31:17.036Z,3.87
2023-04-22T12:33:44.790Z,4.10
2023-04-22T12:36:11.718Z,3.55
2023-04-22T12:38:38.789Z,4.07
2023-04-22T12:41:06.928Z,4.60
2023-04-22T12:43:36.838Z,4.20
2023-04-22T12:46:04.990Z,4.05
2023-04-22T12:48:32.295Z,3.97
2023-04-22T12:50:59.583Z,4.30
2023-04-22T12:53:28.040Z,4.07
2023-04-22T12:55:55.480Z,4.43
2023-04-22T12:58:22.378Z,3.70
2023-04-22T13:00:49.247Z,4.20
2023-04-22T13:03:16.231Z,4.30
2023-04-22T13:05:44.156Z,4.62
2023-04-22T13:08:10.991Z,4.18
2023-04-22T13:10:37.870Z,4.00
2023-04-22T13:15:34.950Z,4.45
2023-04-22T13:18:02.296Z,4.00
2023-04-22T13:20:29.301Z,4.28
2023-04-22T13:22:56.297Z,4.20
2023-04-22T13:25:23.148Z,4.37
2023-04-22T13:27:50.020Z,4.55
2023-04-22T13:30:16.872Z,4.95
2023-04-22T13:32:43.785Z,5.03
2023-04-22T13:35:10.704Z,4.10
2023-04-22T13:37:37.583Z,4.07
2023-04-22T13:40:06.213Z,4.40
2023-04-22T13:42:33.257Z,4.50
2023-04-22T13:45:00.164Z,4.43
2023-04-22T13:47:27.146Z,4.62
2023-04-22T13:49:54.073Z,4.05
2023-04-22T13:52:20.958Z,4.05
2023-04-22T13:54:47.807Z,4.60
2023-04-22T13:57:14.643Z,4.25
2023-04-22T13:59:42.234Z,4.10
2023-04-22T14:02:09.393Z,4.00
2023-04-22T14:04:36.300Z,4.62
2023-04-22T14:07:04.301Z,3.90
2023-04-22T14:09:31.365Z,3.90
2023-04-22T14:11:58.987Z,4.28
2023-04-22T14:14:26.024Z,4.07
2023-04-22T14:16:52.990Z,4.22
2023-04-22T14:19:20.286Z,3.70
2023-04-22T14:21:47.506Z,4.20
2023-04-22T14:24:14.730Z,4.03
2023-04-22T14:26:41.685Z,4.25
2023-04-22T14:29:08.606Z,4.12
2023-04-22T14:31:35.573Z,4.35
2023-04-22T14:34:02.499Z,3.83
2023-04-22T14:36:29.382Z,3.70
2023-04-22T14:38:56.530Z,4.05
2023-04-22T14:41:23.698Z,4.20
2023-04-22T14:43:50.696Z,4.43
2023-04-22T14:46:17.599Z,4.43
2023-04-22T14:48:44.965Z,4.28
2023-04-22T14:51:11.949Z,4.07
2023-04-22T14:53:39.116Z,3.90
2023-04-22T14:56:05.995Z,3.78
2023-04-22T14:58:32.934Z,4.00
2023-04-22T15:01:00.259Z,4.10
2023-04-22T15:03:27.603Z,5.57
2023-04-22T15:05:55.577Z,5.20
2023-04-22T15:08:25.292Z,4.57
2023-04-22T15:10:52.267Z,4.70
2023-04-22T15:13:20.018Z,4.57
2023-04-22T15:15:47.233Z,4.85
2023-04-22T15:18:14.376Z,4.12
2023-04-22T15:20:41.299Z,4.80
2023-04-22T15:23:08.184Z,4.75
2023-04-22T15:25:35.889Z,4.47
2023-04-22T15:28:03.040Z,4.93
2023-04-22T15:30:29.941Z,4.40
2023-04-22T15:32:56.851Z,5.43
2023-04-22T15:35:24.354Z,4.53
2023-04-22T15:37:51.282Z,4.53
2023-04-22T15:40:18.170Z,4.53
2023-04-22T15:42:45.066Z,4.40
2023-04-22T15:45:12.113Z,4.40
2023-04-22T15:47:40.371Z,4.68
2023-04-22T15:50:09.493Z,4.70
2023-04-22T15:52:38.156Z,4.75
2023-04-22T15:55:06.574Z,4.75
2023-04-22T15:57:35.413Z,4.50
2023-04-22T16:00:11.901Z,4.20
2023-04-22T16:02:40.814Z,4.10
2023-04-22T16:05:08.157Z,4.22
2023-04-22T16:07:35.158Z,4.30
2023-04-22T16:10:02.496Z,4.85
2023-04-22T16:12:30.181Z,4.97
2023-04-22T16:14:58.269Z,4.95
2023-04-22T16:17:25.243Z,4.32
2023-04-22T16:19:52.213Z,4.47
2023-04-22T16:22:19.087Z,4.62
2023-04-22T16:24:45.948Z,4.40
2023-04-22T16:27:16.813Z,4.45
2023-04-22T16:29:44.212Z,3.90
2023-04-22T16:32:11.790Z,4.30
2023-04-22T16:34:39.058Z,4.53
2023-04-22T16:37:06.332Z,4.28
2023-04-22T16:39:33.550Z,4.60
2023-04-22T16:42:02.424Z,4.97
2023-04-22T16:44:29.273Z,4.32
2023-04-22T16:46:56.089Z,4.40
2023-04-22T16:49:23.011Z,4.40
2023-04-22T16:51:50.056Z,4.82
2023-04-22T16:54:16.927Z,4.62
2023-04-22T16:56:43.784Z,4.72
2023-04-22T16:59:10.677Z,5.15
2023-04-22T17:01:37.587Z,6.43
2023-04-22T17:04:04.667Z,8.52
2023-04-22T17:06:32.560Z,8.75
2023-04-22T17:09:00.106Z,10.50
2023-04-22T17:11:27.026Z,7.90
2023-04-22T17:13:53.995Z,5.90
2023-04-22T17:16:21.145Z,5.93
2023-04-22T17:18:48.239Z,8.07
2023-04-22T17:21:16.807Z,9.90
2023-04-22T17:23:43.710Z,11.95
2023-04-22T17:26:10.574Z,14.25
2023-04-22T17:28:37.546Z,12.10
2023-04-22T17:31:04.473Z,11.88
2023-04-22T17:33:31.477Z,11.90
2023-04-22T17:35:58.431Z,13.23
2023-04-22T17:38:25.305Z,15.05
2023-04-22T17:40:52.189Z,14.27
2023-04-22T17:43:19.066Z,15.75
2023-04-22T17:45:46.010Z,19.33
2023-04-22T17:48:12.866Z,15.25
2023-04-22T17:50:39.798Z,9.82
2023-04-22T17:53:06.783Z,10.73
2023-04-22T17:55:36.680Z,12.27
2023-04-22T17:58:04.090Z,10.77
2023-04-22T18:00:31.800Z,9.00
2023-04-22T18:02:58.922Z,8.65
2023-04-22T18:05:27.375Z,8.38
2023-04-22T18:08:01.758Z,10.23
2023-04-22T18:10:29.580Z,8.30
2023-04-22T18:12:56.499Z,9.18
2023-04-22T18:15:23.676Z,17.27
2023-04-22T18:17:51.194Z,46.35
2023-04-22T18:20:19.981Z,73.15
2023-04-22T18:22:48.478Z,60.12
2023-04-22T18:25:15.584Z,31.15
2023-04-22T18:27:43.112Z,25.98
2023-04-22T18:30:10.294Z,21.85
2023-04-22T18:32:37.893Z,21.17
2023-04-22T18:35:05.300Z,21.30
2023-04-22T18:37:34.692Z,18.70
2023-04-22T18:40:02.310Z,19.10
2023-04-22T18:42:29.230Z,18.62
2023-04-22T18:44:56.156Z,19.25
2023-04-22T18:47:23.170Z,19.27
2023-04-22T18:49:50.243Z,19.85
2023-04-22T18:52:17.479Z,17.98
2023-04-22T18:54:44.476Z,17.67
2023-04-22T18:57:11.392Z,13.93
2023-04-22T18:59:38.432Z,9.38
2023-04-22T19:02:05.577Z,7.90
2023-04-22T19:04:32.572Z,9.32
2023-04-22T19:06:59.447Z,10.77
2023-04-22T19:09:26.387Z,8.05
2023-04-22T19:11:53.347Z,6.60
2023-04-22T19:14:20.390Z,6.60
2023-04-22T19:16:47.242Z,6.07
2023-04-22T19:19:14.169Z,8.10
2023-04-22T19:21:41.307Z,6.50
2023-04-22T19:24:08.250Z,6.40
2023-04-22T19:26:35.226Z,6.50
2023-04-22T19:29:02.363Z,6.82
2023-04-22T19:31:29.484Z,8.10
2023-04-22T19:33:56.449Z,6.78
2023-04-22T19:36:23.392Z,6.85
2023-04-22T19:38:50.399Z,7.43
2023-04-22T19:41:17.258Z,6.80
2023-04-22T19:43:44.223Z,7.95
2023-04-22T19:46:11.081Z,8.30
2023-04-22T19:48:38.207Z,7.78
2023-04-22T19:51:06.309Z,7.12
2023-04-22T19:53:33.628Z,6.97
2023-04-22T19:56:00.629Z,7.70
2023-04-22T19:58:28.648Z,7.00
2023-04-22T20:00:56.072Z,6.70
2023-04-22T20:03:23.393Z,7.70
2023-04-22T20:05:50.713Z,7.62
2023-04-22T20:08:20.404Z,7.47
2023-04-22T20:10:49.593Z,7.57
2023-04-22T20:13:17.593Z,6.87
2023-04-22T20:15:44.751Z,7.65
2023-04-22T20:18:12.210Z,7.03
2023-04-22T20:20:45.053Z,6.70
2023-04-22T20:23:14.425Z,6.53
2023-04-22T20:25:44.530Z,6.05
2023-04-22T20:28:11.982Z,6.40
2023-04-22T20:30:39.531Z,6.40
2023-04-22T20:33:06.636Z,5.85
2023-04-22T20:35:36.098Z,5.87
2023-04-22T20:38:03.597Z,6.15
2023-04-22T20:40:31.109Z,5.53
2023-04-22T20:42:59.272Z,6.10
2023-04-22T20:45:27.423Z,6.20
2023-04-22T20:47:54.491Z,6.07
2023-04-22T20:50:21.409Z,6.35
2023-04-22T20:52:49.286Z,6.55
2023-04-22T20:55:17.205Z,6.60
2023-04-22T20:57:44.265Z,5.70
2023-04-22T21:00:11.853Z,7.10
2023-04-22T21:02:39.928Z,6.07
2023-04-22T21:05:07.688Z,6.47
2023-04-22T21:07:35.569Z,6.10
2023-04-22T21:10:02.684Z,6.32
2023-04-22T21:12:29.812Z,7.05
2023-04-22T21:14:56.906Z,5.57
2023-04-22T21:17:26.985Z,6.30
2023-04-22T21:19:56.942Z,6.10
2023-04-22T21:22:24.768Z,6.20
2023-04-22T21:24:52.660Z,6.37
2023-04-22T21:27:21.754Z,6.05
2023-04-22T21:29:49.649Z,6.15
2023-04-22T21:32:17.250Z,6.65
2023-04-22T21:34:45.003Z,6.28
2023-04-22T21:37:12.838Z,6.18
2023-04-22T21:39:40.716Z,6.62
2023-04-22T21:42:08.906Z,6.40
2023-04-22T21:44:37.057Z,6.43
2023-04-22T21:47:04.382Z,6.60
2023-04-22T21:49:31.343Z,6.00
2023-04-22T21:51:58.497Z,6.43
2023-04-22T21:54:25.451Z,6.95
2023-04-22T21:56:52.404Z,6.53
2023-04-22T21:59:19.353Z,6.97
2023-04-22T22:01:46.389Z,6.35
2023-04-22T22:04:15.735Z,7.22
2023-04-22T22:06:43.953Z,6.53
2023-04-22T22:09:11.690Z,5.82
2023-04-22T22:11:38.549Z,5.93
2023-04-22T22:14:05.661Z,6.75
2023-04-22T22:16:33.534Z,6.22
2023-04-22T22:19:04.631Z,6.30
2023-04-22T22:21:33.217Z,6.80
2023-04-22T22:24:00.239Z,6.28
2023-04-22T22:26:29.574Z,6.40
2023-04-22T22:28:56.690Z,6.43
2023-04-22T22:31:23.581Z,6.93
2023-04-22T22:33:50.478Z,5.85
2023-04-22T22:36:17.582Z,6.85
2023-04-22T22:38:44.458Z,6.35
2023-04-22T22:41:11.306Z,6.20
2023-04-22T22:43:38.305Z,6.00
2023-04-22T22:46:05.217Z,6.43
2023-04-22T22:48:32.866Z,6.18
2023-04-22T22:50:59.717Z,6.87
2023-04-22T22:53:27.011Z,6.95
2023-04-22T22:55:53.921Z,6.07
2023-04-22T22:58:20.867Z,6.35
2023-04-22T23:00:47.914Z,6.18
2023-04-22T23:03:15.560Z,6.45
2023-04-22T23:05:43.855Z,6.93
2023-04-22T23:08:10.703Z,6.30
2023-04-22T23:10:37.550Z,6.72
2023-04-22T23:13:04.446Z,5.90
2023-04-22T23:15:31.325Z,6.45
2023-04-22T23:17:58.268Z,6.45
2023-04-22T23:20:26.033Z,6.50
2023-04-22T23:22:53.566Z,6.30
2023-04-22T23:25:20.509Z,6.95
2023-04-22T23:27:47.844Z,5.78
2023-04-22T23:30:15.064Z,6.57
2023-04-22T23:32:43.366Z,6.32
2023-04-22T23:35:12.353Z,6.35
2023-04-22T23:37:43.971Z,6.18
2023-04-22T23:40:11.767Z,6.10
2023-04-22T23:42:38.663Z,6.55
2023-04-22T23:45:05.941Z,5.75
2023-04-22T23:47:32.856Z,6.18
2023-04-22T23:49:59.745Z,6.15
2023-04-22T23:52:26.712Z,6.15
2023-04-22T23:54:55.202Z,6.05
2023-04-22T23:57:22.284Z,5.97
2023-04-22T23:59:49.420Z,6.40
